sensor_id;sensor_type;location;lat;lon;timestamp;pressure;altitude;pressure_sealevel;temperature;humidity
39769;BME280;38939;47.824;14.642;2022-08-19T00:00:59;96276.38;;;19.72;81.06
39769;BME280;38939;47.824;14.642;2022-08-19T00:02:01;96280.63;;;19.73;80.79
39769;BME280;38939;47.824;14.642;2022-08-19T00:03:03;96282.47;;;19.73;80.76
39769;BME280;38939;47.824;14.642;2022-08-19T00:04:07;96282.19;;;19.74;80.68
39769;BME280;38939;47.824;14.642;2022-08-19T00:05:10;96281.94;;;19.76;80.57
39769;BME280;38939;47.824;14.642;2022-08-19T00:06:12;96291.16;;;19.78;80.73
39769;BME280;38939;47.824;14.642;2022-08-19T00:07:16;96274.50;;;19.78;80.71
39769;BME280;38939;47.824;14.642;2022-08-19T00:08:18;96275.28;;;19.78;80.69
39769;BME280;38939;47.824;14.642;2022-08-19T00:09:20;96266.28;;;19.80;80.62
39769;BME280;38939;47.824;14.642;2022-08-19T00:10:23;96272.63;;;19.78;80.76
39769;BME280;38939;47.824;14.642;2022-08-19T00:11:26;96263.41;;;19.76;81.11
39769;BME280;38939;47.824;14.642;2022-08-19T00:12:29;96276.38;;;19.72;81.29
39769;BME280;38939;47.824;14.642;2022-08-19T00:13:31;96274.28;;;19.69;81.55
39769;BME280;38939;47.824;14.642;2022-08-19T00:14:33;96275.06;;;19.70;81.22
39769;BME280;38939;47.824;14.642;2022-08-19T00:15:36;96276.66;;;19.71;80.87
39769;BME280;38939;47.824;14.642;2022-08-19T00:16:39;96288.06;;;19.71;80.97
39769;BME280;38939;47.824;14.642;2022-08-19T00:17:42;96289.88;;;19.71;81.17
39769;BME280;38939;47.824;14.642;2022-08-19T00:18:44;96289.34;;;19.69;81.07
39769;BME280;38939;47.824;14.642;2022-08-19T00:19:46;96291.72;;;19.70;80.88
39769;BME280;38939;47.824;14.642;2022-08-19T00:20:48;96294.38;;;19.65;81.50
39769;BME280;38939;47.824;14.642;2022-08-19T00:21:50;96297.34;;;19.64;81.31
39769;BME280;38939;47.824;14.642;2022-08-19T00:22:52;96294.38;;;19.65;81.21
39769;BME280;38939;47.824;14.642;2022-08-19T00:23:55;96293.34;;;19.66;81.15
39769;BME280;38939;47.824;14.642;2022-08-19T00:24:59;96296.00;;;19.66;80.98
39769;BME280;38939;47.824;14.642;2022-08-19T00:26:05;96301.78;;;19.68;81.05
39769;BME280;38939;47.824;14.642;2022-08-19T00:27:06;96299.69;;;19.65;81.22
39769;BME280;38939;47.824;14.642;2022-08-19T00:28:27;96308.72;;;19.64;80.86
39769;BME280;38939;47.824;14.642;2022-08-19T00:29:29;96300.75;;;19.64;80.94
39769;BME280;38939;47.824;14.642;2022-08-19T00:30:31;96303.41;;;19.64;81.17
39769;BME280;38939;47.824;14.642;2022-08-19T00:31:32;96311.88;;;19.61;81.19
39769;BME280;38939;47.824;14.642;2022-08-19T00:32:34;96312.69;;;19.62;81.25
39769;BME280;38939;47.824;14.642;2022-08-19T00:33:36;96324.06;;;19.62;81.05
39769;BME280;38939;47.824;14.642;2022-08-19T00:34:38;96324.84;;;19.63;81.01
39769;BME280;38939;47.824;14.642;2022-08-19T00:35:40;96318.00;;;19.62;81.32
39769;BME280;38939;47.824;14.642;2022-08-19T00:36:42;96321.75;;;19.55;81.73
39769;BME280;38939;47.824;14.642;2022-08-19T00:37:44;96319.34;;;19.54;81.69
39769;BME280;38939;47.824;14.642;2022-08-19T00:38:46;96325.69;;;19.53;81.63
39769;BME280;38939;47.824;14.642;2022-08-19T00:39:49;96331.00;;;19.53;81.72
39769;BME280;38939;47.824;14.642;2022-08-19T00:40:52;96328.38;;;19.48;82.12
39769;BME280;38939;47.824;14.642;2022-08-19T00:41:54;96323.63;;;19.45;82.28
39769;BME280;38939;47.824;14.642;2022-08-19T00:42:56;96320.97;;;19.45;81.88
39769;BME280;38939;47.824;14.642;2022-08-19T00:45:00;96326.78;;;19.47;81.78
39769;BME280;38939;47.824;14.642;2022-08-19T00:46:02;96327.03;;;19.50;81.63
39769;BME280;38939;47.824;14.642;2022-08-19T00:47:06;96320.69;;;19.51;81.57
39769;BME280;38939;47.824;14.642;2022-08-19T00:48:14;96316.72;;;19.54;81.65
39769;BME280;38939;47.824;14.642;2022-08-19T00:50:39;96327.03;;;19.55;81.29
39769;BME280;38939;47.824;14.642;2022-08-19T00:51:53;96319.09;;;19.55;81.00
39769;BME280;38939;47.824;14.642;2022-08-19T00:52:57;96321.75;;;19.55;81.03
39769;BME280;38939;47.824;14.642;2022-08-19T00:54:01;96335.75;;;19.56;80.97
39769;BME280;38939;47.824;14.642;2022-08-19T00:55:05;96342.09;;;19.55;81.10
39769;BME280;38939;47.824;14.642;2022-08-19T00:56:09;96351.91;;;19.54;81.21
39769;BME280;38939;47.824;14.642;2022-08-19T00:57:13;96362.50;;;19.54;81.34
39769;BME280;38939;47.824;14.642;2022-08-19T00:58:20;96363.81;;;19.52;81.17
39769;BME280;38939;47.824;14.642;2022-08-19T00:59:22;96370.16;;;19.51;81.05
39769;BME280;38939;47.824;14.642;2022-08-19T01:00:45;96373.63;;;19.51;80.82
39769;BME280;38939;47.824;14.642;2022-08-19T01:01:47;96375.47;;;19.51;80.92
39769;BME280;38939;47.824;14.642;2022-08-19T01:02:49;96373.91;;;19.50;81.11
39769;BME280;38939;47.824;14.642;2022-08-19T01:03:51;96365.97;;;19.50;81.16
39769;BME280;38939;47.824;14.642;2022-08-19T01:04:57;96367.00;;;19.49;81.22
39769;BME280;38939;47.824;14.642;2022-08-19T01:06:00;96372.28;;;19.49;80.92
39769;BME280;38939;47.824;14.642;2022-08-19T01:07:02;96377.59;;;19.49;80.88
39769;BME280;38939;47.824;14.642;2022-08-19T01:08:04;96371.50;;;19.48;81.00
39769;BME280;38939;47.824;14.642;2022-08-19T01:09:07;96377.59;;;19.49;80.82
39769;BME280;38939;47.824;14.642;2022-08-19T01:10:11;96380.25;;;19.49;80.80
39769;BME280;38939;47.824;14.642;2022-08-19T01:11:13;96374.44;;;19.47;80.54
39769;BME280;38939;47.824;14.642;2022-08-19T01:12:16;96371.00;;;19.46;80.56
39769;BME280;38939;47.824;14.642;2022-08-19T01:13:19;96370.72;;;19.48;80.60
39769;BME280;38939;47.824;14.642;2022-08-19T01:14:21;96365.44;;;19.48;80.59
39769;BME280;38939;47.824;14.642;2022-08-19T01:15:26;96376.03;;;19.48;80.67
39769;BME280;38939;47.824;14.642;2022-08-19T01:16:29;96381.56;;;19.46;80.48
39769;BME280;38939;47.824;14.642;2022-08-19T01:17:31;96385.31;;;19.45;80.40
39769;BME280;38939;47.824;14.642;2022-08-19T01:18:35;96392.94;;;19.47;80.54
39769;BME280;38939;47.824;14.642;2022-08-19T01:19:39;96394.56;;;19.43;80.72
39769;BME280;38939;47.824;14.642;2022-08-19T01:20:44;96396.97;;;19.39;80.87
39769;BME280;38939;47.824;14.642;2022-08-19T01:21:52;96391.94;;;19.37;80.83
39769;BME280;38939;47.824;14.642;2022-08-19T01:22:56;96396.72;;;19.35;80.84
39769;BME280;38939;47.824;14.642;2022-08-19T01:23:58;96389.81;;;19.34;81.11
39769;BME280;38939;47.824;14.642;2022-08-19T01:25:00;96384.28;;;19.36;80.96
39769;BME280;38939;47.824;14.642;2022-08-19T01:26:04;96384.28;;;19.36;81.13
39769;BME280;38939;47.824;14.642;2022-08-19T01:27:08;96382.41;;;19.36;81.08
39769;BME280;38939;47.824;14.642;2022-08-19T01:28:18;96375.28;;;19.37;81.16
39769;BME280;38939;47.824;14.642;2022-08-19T01:29:36;96352.78;;;19.34;81.21
39769;BME280;38939;47.824;14.642;2022-08-19T01:30:41;96336.13;;;19.34;81.34
39769;BME280;38939;47.824;14.642;2022-08-19T01:31:51;96313.66;;;19.31;81.18
39769;BME280;38939;47.824;14.642;2022-08-19T01:32:53;96297.78;;;19.31;80.97
39769;BME280;38939;47.824;14.642;2022-08-19T01:33:56;96287.72;;;19.33;80.86
39769;BME280;38939;47.824;14.642;2022-08-19T01:34:58;96286.91;;;19.33;80.60
39769;BME280;38939;47.824;14.642;2022-08-19T01:36:08;96291.41;;;19.32;81.04
39769;BME280;38939;47.824;14.642;2022-08-19T01:37:10;96300.44;;;19.31;81.24
39769;BME280;38939;47.824;14.642;2022-08-19T01:38:23;96316.31;;;19.26;81.31
39769;BME280;38939;47.824;14.642;2022-08-19T01:39:25;96323.97;;;19.28;81.42
39769;BME280;38939;47.824;14.642;2022-08-19T01:40:29;96321.88;;;19.25;81.58
39769;BME280;38939;47.824;14.642;2022-08-19T01:41:32;96324.50;;;19.25;81.50
39769;BME280;38939;47.824;14.642;2022-08-19T01:42:34;96320.03;;;19.25;81.26
39769;BME280;38939;47.824;14.642;2022-08-19T01:43:37;96327.69;;;19.27;81.29
39769;BME280;38939;47.824;14.642;2022-08-19T01:44:59;96352.31;;;19.27;81.38
39769;BME280;38939;47.824;14.642;2022-08-19T01:46:02;96365.22;;;19.29;81.50
39769;BME280;38939;47.824;14.642;2022-08-19T01:47:04;96366.56;;;19.26;81.85
39769;BME280;38939;47.824;14.642;2022-08-19T01:48:07;96350.69;;;19.26;81.70
39769;BME280;38939;47.824;14.642;2022-08-19T01:49:10;96345.94;;;19.28;81.83
39769;BME280;38939;47.824;14.642;2022-08-19T01:50:12;96341.16;;;19.30;81.62
39769;BME280;38939;47.824;14.642;2022-08-19T01:51:14;96345.41;;;19.26;82.40
39769;BME280;38939;47.824;14.642;2022-08-19T01:52:17;96349.94;;;19.21;82.69
39769;BME280;38939;47.824;14.642;2022-08-19T01:53:19;96350.75;;;19.21;82.65
39769;BME280;38939;47.824;14.642;2022-08-19T01:54:23;96355.75;;;19.23;82.41
39769;BME280;38939;47.824;14.642;2022-08-19T01:55:28;96365.78;;;19.26;82.15
39769;BME280;38939;47.824;14.642;2022-08-19T01:56:30;96365.78;;;19.26;81.96
39769;BME280;38939;47.824;14.642;2022-08-19T01:57:32;96361.28;;;19.26;82.08
39769;BME280;38939;47.824;14.642;2022-08-19T01:58:36;96360.50;;;19.21;82.87
39769;BME280;38939;47.824;14.642;2022-08-19T01:59:40;96366.09;;;19.19;82.63
39769;BME280;38939;47.824;14.642;2022-08-19T02:00:43;96367.69;;;19.15;82.39
39769;BME280;38939;47.824;14.642;2022-08-19T02:01:45;96371.13;;;19.15;82.29
39769;BME280;38939;47.824;14.642;2022-08-19T02:02:47;96371.63;;;19.17;82.27
39769;BME280;38939;47.824;14.642;2022-08-19T02:03:49;96367.13;;;19.18;82.02
39769;BME280;38939;47.824;14.642;2022-08-19T02:04:51;96366.09;;;19.19;82.32
39769;BME280;38939;47.824;14.642;2022-08-19T02:05:56;96356.28;;;19.19;82.11
39769;BME280;38939;47.824;14.642;2022-08-19T02:07:01;96355.50;;;19.19;82.23
39769;BME280;38939;47.824;14.642;2022-08-19T02:08:03;96348.63;;;19.18;82.66
39769;BME280;38939;47.824;14.642;2022-08-19T02:09:05;96353.66;;;19.14;82.85
39769;BME280;38939;47.824;14.642;2022-08-19T02:10:09;96344.66;;;19.15;82.93
39769;BME280;38939;47.824;14.642;2022-08-19T02:11:24;96348.09;;;19.16;82.53
39769;BME280;38939;47.824;14.642;2022-08-19T02:12:27;96338.81;;;19.18;82.35
39769;BME280;38939;47.824;14.642;2022-08-19T02:13:29;96332.50;;;19.19;82.24
39769;BME280;38939;47.824;14.642;2022-08-19T02:14:33;96332.22;;;19.21;82.09
39769;BME280;38939;47.824;14.642;2022-08-19T02:15:35;96329.56;;;19.21;82.17
39769;BME280;38939;47.824;14.642;2022-08-19T02:16:37;96330.38;;;19.22;82.17
39769;BME280;38939;47.824;14.642;2022-08-19T02:17:39;96322.16;;;19.23;82.09
39769;BME280;38939;47.824;14.642;2022-08-19T02:18:41;96330.88;;;19.24;82.15
39769;BME280;38939;47.824;14.642;2022-08-19T02:19:43;96326.94;;;19.21;82.08
39769;BME280;38939;47.824;14.642;2022-08-19T02:20:45;96329.28;;;19.23;82.01
39769;BME280;38939;47.824;14.642;2022-08-19T02:21:49;96327.19;;;19.19;82.15
39769;BME280;38939;47.824;14.642;2022-08-19T02:22:51;96327.47;;;19.18;82.06
39769;BME280;38939;47.824;14.642;2022-08-19T02:23:54;96329.84;;;19.19;82.08
39769;BME280;38939;47.824;14.642;2022-08-19T02:24:57;96325.34;;;19.20;81.96
39769;BME280;38939;47.824;14.642;2022-08-19T02:25:59;96324.00;;;19.23;81.80
39769;BME280;38939;47.824;14.642;2022-08-19T02:27:00;96321.34;;;19.23;81.82
39769;BME280;38939;47.824;14.642;2022-08-19T02:28:03;96324.00;;;19.23;81.86
39769;BME280;38939;47.824;14.642;2022-08-19T02:29:05;96326.63;;;19.23;81.97
39769;BME280;38939;47.824;14.642;2022-08-19T02:30:08;96328.50;;;19.22;82.12
39769;BME280;38939;47.824;14.642;2022-08-19T02:31:16;96333.00;;;19.22;82.28
39769;BME280;38939;47.824;14.642;2022-08-19T02:32:19;96330.63;;;19.20;82.31
39769;BME280;38939;47.824;14.642;2022-08-19T02:33:21;96333.53;;;19.18;82.14
39769;BME280;38939;47.824;14.642;2022-08-19T02:34:23;96338.81;;;19.18;82.28
39769;BME280;38939;47.824;14.642;2022-08-19T02:35:26;96332.50;;;19.19;82.01
39769;BME280;38939;47.824;14.642;2022-08-19T02:36:28;96334.88;;;19.21;82.06
39769;BME280;38939;47.824;14.642;2022-08-19T02:37:30;96334.88;;;19.21;82.20
39769;BME280;38939;47.824;14.642;2022-08-19T02:38:50;96325.84;;;19.22;82.08
39769;BME280;38939;47.824;14.642;2022-08-19T02:39:55;96326.94;;;19.21;82.10
39769;BME280;38939;47.824;14.642;2022-08-19T02:41:06;96327.47;;;19.18;82.08
39769;BME280;38939;47.824;14.642;2022-08-19T02:42:08;96335.44;;;19.13;82.24
39769;BME280;38939;47.824;14.642;2022-08-19T02:43:10;96334.91;;;19.11;82.41
39769;BME280;38939;47.824;14.642;2022-08-19T02:44:12;96336.50;;;19.07;82.50
39769;BME280;38939;47.824;14.642;2022-08-19T02:45:31;96328.84;;;19.05;82.39
39769;BME280;38939;47.824;14.642;2022-08-19T02:46:34;96328.06;;;19.05;82.34
39769;BME280;38939;47.824;14.642;2022-08-19T02:47:37;96332.53;;;19.04;82.27
39769;BME280;38939;47.824;14.642;2022-08-19T02:48:39;96334.13;;;19.05;82.19
39769;BME280;38939;47.824;14.642;2022-08-19T02:49:41;96337.56;;;19.06;82.10
39769;BME280;38939;47.824;14.642;2022-08-19T02:50:43;96332.00;;;19.07;82.05
39769;BME280;38939;47.824;14.642;2022-08-19T02:51:53;96328.84;;;19.05;82.12
39769;BME280;38939;47.824;14.642;2022-08-19T02:52:55;96326.97;;;19.06;82.14
39769;BME280;38939;47.824;14.642;2022-08-19T02:53:57;96321.97;;;19.04;82.43
39769;BME280;38939;47.824;14.642;2022-08-19T02:55:01;96325.41;;;18.99;82.79
39769;BME280;38939;47.824;14.642;2022-08-19T02:56:05;96319.09;;;18.95;82.87
39769;BME280;38939;47.824;14.642;2022-08-19T02:57:07;96316.44;;;18.95;82.91
39769;BME280;38939;47.824;14.642;2022-08-19T02:58:09;96314.59;;;18.96;82.66
39769;BME280;38939;47.824;14.642;2022-08-19T02:59:11;96316.97;;;18.97;82.78
39769;BME280;38939;47.824;14.642;2022-08-19T03:00:13;96317.47;;;18.99;82.45
39769;BME280;38939;47.824;14.642;2022-08-19T03:01:23;96320.91;;;19.00;82.34
39769;BME280;38939;47.824;14.642;2022-08-19T03:02:25;96326.19;;;19.00;82.00
39769;BME280;38939;47.824;14.642;2022-08-19T03:03:27;96328.84;;;19.00;81.83
39769;BME280;38939;47.824;14.642;2022-08-19T03:04:29;96327.00;;;19.01;81.81
39769;BME280;38939;47.824;14.642;2022-08-19T03:05:31;96331.50;;;19.00;82.39
39769;BME280;38939;47.824;14.642;2022-08-19T03:06:52;96332.56;;;18.94;83.27
39769;BME280;38939;47.824;14.642;2022-08-19T03:08:01;96335.25;;;18.89;83.37
39769;BME280;38939;47.824;14.642;2022-08-19T03:09:03;96346.88;;;18.88;83.13
39769;BME280;38939;47.824;14.642;2022-08-19T03:10:05;96339.72;;;18.88;82.90
39769;BME280;38939;47.824;14.642;2022-08-19T03:11:12;96345.00;;;18.88;82.92
39769;BME280;38939;47.824;14.642;2022-08-19T03:12:14;96343.97;;;18.89;82.78
39769;BME280;38939;47.824;14.642;2022-08-19T03:13:17;96347.13;;;18.91;82.55
39769;BME280;38939;47.824;14.642;2022-08-19T03:14:19;96346.56;;;18.94;82.55
39769;BME280;38939;47.824;14.642;2022-08-19T03:15:21;96344.75;;;18.95;82.37
39769;BME280;38939;47.824;14.642;2022-08-19T03:16:25;96344.75;;;18.95;82.36
39769;BME280;38939;47.824;14.642;2022-08-19T03:17:27;96345.25;;;18.97;82.11
39769;BME280;38939;47.824;14.642;2022-08-19T03:18:29;96346.84;;;18.98;82.11
39769;BME280;38939;47.824;14.642;2022-08-19T03:19:31;96347.09;;;18.96;82.28
39769;BME280;38939;47.824;14.642;2022-08-19T03:20:33;96341.81;;;18.96;82.21
39769;BME280;38939;47.824;14.642;2022-08-19T03:21:35;96349.47;;;18.98;82.00
39769;BME280;38939;47.824;14.642;2022-08-19T03:22:37;96331.53;;;18.95;82.51
39769;BME280;38939;47.824;14.642;2022-08-19T03:23:39;96333.91;;;18.91;82.58
39769;BME280;38939;47.824;14.642;2022-08-19T03:24:41;96326.53;;;18.83;83.00
39769;BME280;38939;47.824;14.642;2022-08-19T03:25:45;96326.00;;;18.81;82.98
39769;BME280;38939;47.824;14.642;2022-08-19T03:27:03;96329.16;;;18.83;83.12
39769;BME280;38939;47.824;14.642;2022-08-19T03:28:06;96323.63;;;18.85;83.08
39769;BME280;38939;47.824;14.642;2022-08-19T03:29:09;96328.63;;;18.86;82.82
39769;BME280;38939;47.824;14.642;2022-08-19T03:30:13;96329.94;;;18.89;82.60
39769;BME280;38939;47.824;14.642;2022-08-19T03:31:23;96332.31;;;18.90;82.62
39769;BME280;38939;47.824;14.642;2022-08-19T03:32:45;96336.03;;;18.89;82.78
39769;BME280;38939;47.824;14.642;2022-08-19T03:33:53;96327.31;;;18.89;82.67
39769;BME280;38939;47.824;14.642;2022-08-19T03:34:55;96330.47;;;18.91;82.71
39769;BME280;38939;47.824;14.642;2022-08-19T03:36:03;96328.63;;;18.91;82.64
39769;BME280;38939;47.824;14.642;2022-08-19T03:37:07;96334.69;;;18.92;82.84
39769;BME280;38939;47.824;14.642;2022-08-19T03:38:09;96343.97;;;18.89;83.08
39769;BME280;38939;47.824;14.642;2022-08-19T03:39:11;96349.25;;;18.89;83.58
39769;BME280;38939;47.824;14.642;2022-08-19T03:40:13;96356.91;;;18.86;83.78
39769;BME280;38939;47.824;14.642;2022-08-19T03:41:18;96357.69;;;18.86;84.05
39769;BME280;38939;47.824;14.642;2022-08-19T03:42:21;96350.06;;;18.85;83.56
39769;BME280;38939;47.824;14.642;2022-08-19T03:43:39;96350.06;;;18.85;83.50
39769;BME280;38939;47.824;14.642;2022-08-19T03:44:41;96348.72;;;18.82;83.83
39769;BME280;38939;47.824;14.642;2022-08-19T03:45:46;96351.38;;;18.82;83.57
39769;BME280;38939;47.824;14.642;2022-08-19T03:46:49;96361.94;;;18.82;83.24
39769;BME280;38939;47.824;14.642;2022-08-19T03:47:51;96359.03;;;18.84;83.11
39769;BME280;38939;47.824;14.642;2022-08-19T03:48:55;96373.03;;;18.84;83.38
39769;BME280;38939;47.824;14.642;2022-08-19T03:49:57;96377.78;;;18.82;83.64
39769;BME280;38939;47.824;14.642;2022-08-19T03:50:59;96378.34;;;18.79;83.53
39769;BME280;38939;47.824;14.642;2022-08-19T03:52:01;96378.34;;;18.79;83.60
39769;BME280;38939;47.824;14.642;2022-08-19T03:53:03;96380.72;;;18.81;83.53
39769;BME280;38939;47.824;14.642;2022-08-19T03:54:06;96388.38;;;18.82;83.48
39769;BME280;38939;47.824;14.642;2022-08-19T03:55:08;96382.03;;;18.83;83.67
39769;BME280;38939;47.824;14.642;2022-08-19T03:56:10;96379.41;;;18.83;83.27
39769;BME280;38939;47.824;14.642;2022-08-19T03:57:12;96386.25;;;18.84;83.23
39769;BME280;38939;47.824;14.642;2022-08-19T03:58:14;96380.97;;;18.84;83.18
39769;BME280;38939;47.824;14.642;2022-08-19T03:59:22;96386.53;;;18.88;83.26
39769;BME280;38939;47.824;14.642;2022-08-19T04:00:26;96390.47;;;18.90;83.07
39769;BME280;38939;47.824;14.642;2022-08-19T04:01:28;96392.06;;;18.91;82.79
39769;BME280;38939;47.824;14.642;2022-08-19T04:02:35;96394.44;;;18.93;82.92
39769;BME280;38939;47.824;14.642;2022-08-19T04:03:38;96396.56;;;18.91;83.19
39769;BME280;38939;47.824;14.642;2022-08-19T04:04:41;96385.19;;;18.90;83.08
39769;BME280;38939;47.824;14.642;2022-08-19T04:05:45;96400.53;;;18.88;83.23
39769;BME280;38939;47.824;14.642;2022-08-19T04:06:48;96396.56;;;18.86;83.56
39769;BME280;38939;47.824;14.642;2022-08-19T04:07:50;96411.13;;;18.83;83.27
39769;BME280;38939;47.824;14.642;2022-08-19T04:08:52;96410.34;;;18.83;83.12
39769;BME280;38939;47.824;14.642;2022-08-19T04:09:55;96422.22;;;18.85;83.25
39769;BME280;38939;47.824;14.642;2022-08-19T04:10:57;96425.66;;;18.86;83.10
39769;BME280;38939;47.824;14.642;2022-08-19T04:11:59;96431.47;;;18.88;82.94
39769;BME280;38939;47.824;14.642;2022-08-19T04:13:01;96428.56;;;18.89;83.04
39769;BME280;38939;47.824;14.642;2022-08-19T04:14:04;96437.81;;;18.92;82.84
39769;BME280;38939;47.824;14.642;2022-08-19T04:15:06;96447.84;;;18.90;82.89
39769;BME280;38939;47.824;14.642;2022-08-19T04:16:10;96462.41;;;18.87;83.50
39769;BME280;38939;47.824;14.642;2022-08-19T04:17:12;96465.56;;;18.84;83.75
39769;BME280;38939;47.824;14.642;2022-08-19T04:18:15;96483.03;;;18.85;83.57
39769;BME280;38939;47.824;14.642;2022-08-19T04:19:18;96487.25;;;18.86;83.87
39769;BME280;38939;47.824;14.642;2022-08-19T04:20:20;96498.34;;;18.88;83.49
39769;BME280;38939;47.824;14.642;2022-08-19T04:21:23;96503.13;;;18.91;83.43
39769;BME280;38939;47.824;14.642;2022-08-19T04:22:25;96528.78;;;18.91;83.95
39769;BME280;38939;47.824;14.642;2022-08-19T04:23:29;96538.53;;;18.90;83.99
39769;BME280;38939;47.824;14.642;2022-08-19T04:24:32;96546.22;;;18.92;83.96
39769;BME280;38939;47.824;14.642;2022-08-19T04:25:39;96553.34;;;18.91;84.77
39769;BME280;38939;47.824;14.642;2022-08-19T04:26:41;96561.78;;;18.88;84.90
39769;BME280;38939;47.824;14.642;2022-08-19T04:27:43;96556.50;;;18.88;85.26
39769;BME280;38939;47.824;14.642;2022-08-19T04:28:48;96554.94;;;18.87;85.25
39769;BME280;38939;47.824;14.642;2022-08-19T04:29:50;96555.47;;;18.89;85.32
39769;BME280;38939;47.824;14.642;2022-08-19T04:30:54;96542.25;;;18.89;85.80
39769;BME280;38939;47.824;14.642;2022-08-19T04:31:56;96525.84;;;18.87;85.65
39769;BME280;38939;47.824;14.642;2022-08-19T04:33:00;96508.91;;;18.88;85.37
39769;BME280;38939;47.824;14.642;2022-08-19T04:34:04;96504.16;;;18.90;85.30
39769;BME280;38939;47.824;14.642;2022-08-19T04:35:06;96503.38;;;18.90;85.63
39769;BME280;38939;47.824;14.642;2022-08-19T04:36:20;96512.91;;;18.91;85.06
39769;BME280;38939;47.824;14.642;2022-08-19T04:37:22;96518.97;;;18.91;85.31
39769;BME280;38939;47.824;14.642;2022-08-19T04:38:24;96517.13;;;18.92;85.72
39769;BME280;38939;47.824;14.642;2022-08-19T04:39:27;96526.91;;;18.91;85.95
39769;BME280;38939;47.824;14.642;2022-08-19T04:40:51;96514.72;;;18.90;86.72
39769;BME280;38939;47.824;14.642;2022-08-19T04:42:11;96502.34;;;18.91;86.54
39769;BME280;38939;47.824;14.642;2022-08-19T04:43:32;96484.06;;;18.94;86.41
39769;BME280;38939;47.824;14.642;2022-08-19T04:44:34;96474.81;;;18.97;86.13
39769;BME280;38939;47.824;14.642;2022-08-19T04:45:46;96461.31;;;18.98;86.00
39769;BME280;38939;47.824;14.642;2022-08-19T04:46:49;96465.03;;;18.97;85.74
39769;BME280;38939;47.824;14.642;2022-08-19T04:47:54;96460.78;;;18.96;85.76
39769;BME280;38939;47.824;14.642;2022-08-19T04:49:19;96457.88;;;18.98;85.46
39769;BME280;38939;47.824;14.642;2022-08-19T04:50:23;96460.53;;;18.98;85.60
39769;BME280;38939;47.824;14.642;2022-08-19T04:51:25;96463.97;;;18.98;85.45
39769;BME280;38939;47.824;14.642;2022-08-19T04:52:27;96469.53;;;18.97;85.48
39769;BME280;38939;47.824;14.642;2022-08-19T04:53:30;96479.06;;;18.88;86.73
39769;BME280;38939;47.824;14.642;2022-08-19T04:54:38;96481.44;;;18.79;87.07
39769;BME280;38939;47.824;14.642;2022-08-19T04:55:41;96480.63;;;18.78;87.02
39769;BME280;38939;47.824;14.642;2022-08-19T04:56:43;96473.25;;;18.81;86.92
39769;BME280;38939;47.824;14.642;2022-08-19T04:57:45;96479.06;;;18.83;86.92
39769;BME280;38939;47.824;14.642;2022-08-19T04:58:47;96476.13;;;18.84;86.83
39769;BME280;38939;47.824;14.642;2022-08-19T04:59:53;96477.75;;;18.85;86.44
39769;BME280;38939;47.824;14.642;2022-08-19T05:00:55;96470.34;;;18.87;86.75
39769;BME280;38939;47.824;14.642;2022-08-19T05:01:57;96473.50;;;18.89;87.53
39769;BME280;38939;47.824;14.642;2022-08-19T05:02:59;96470.88;;;18.89;87.88
39769;BME280;38939;47.824;14.642;2022-08-19T05:04:03;96470.88;;;18.89;87.92
39769;BME280;38939;47.824;14.642;2022-08-19T05:05:06;96472.72;;;18.89;87.86
39769;BME280;38939;47.824;14.642;2022-08-19T05:06:09;96475.88;;;18.86;87.64
39769;BME280;38939;47.824;14.642;2022-08-19T05:07:12;96474.84;;;18.87;87.50
39769;BME280;38939;47.824;14.642;2022-08-19T05:08:16;96482.22;;;18.90;87.63
39769;BME280;38939;47.824;14.642;2022-08-19T05:09:31;96476.69;;;18.91;87.41
39769;BME280;38939;47.824;14.642;2022-08-19T05:10:53;96474.56;;;18.93;87.53
39769;BME280;38939;47.824;14.642;2022-08-19T05:11:55;96483.53;;;18.92;87.32
39769;BME280;38939;47.824;14.642;2022-08-19T05:12:57;96490.41;;;18.93;87.44
39769;BME280;38939;47.824;14.642;2022-08-19T05:13:59;96489.34;;;18.94;87.40
39769;BME280;38939;47.824;14.642;2022-08-19T05:15:02;96490.94;;;18.90;88.21
39769;BME280;38939;47.824;14.642;2022-08-19T05:16:04;96490.41;;;18.88;88.55
39769;BME280;38939;47.824;14.642;2022-08-19T05:17:06;96487.78;;;18.83;88.54
39769;BME280;38939;47.824;14.642;2022-08-19T05:18:28;96481.44;;;18.84;88.54
39769;BME280;38939;47.824;14.642;2022-08-19T05:19:48;96474.03;;;18.86;88.33
39769;BME280;38939;47.824;14.642;2022-08-19T05:21:10;96482.47;;;18.88;87.50
39769;BME280;38939;47.824;14.642;2022-08-19T05:22:30;96476.69;;;18.91;87.21
39769;BME280;38939;47.824;14.642;2022-08-19T05:23:37;96465.56;;;18.94;87.08
39769;BME280;38939;47.824;14.642;2022-08-19T05:24:39;96454.47;;;18.97;86.96
39769;BME280;38939;47.824;14.642;2022-08-19T05:26:01;96433.03;;;18.99;87.60
39769;BME280;38939;47.824;14.642;2022-08-19T05:27:03;96419.00;;;18.98;87.47
39769;BME280;38939;47.824;14.642;2022-08-19T05:28:07;96407.91;;;19.02;87.38
39769;BME280;38939;47.824;14.642;2022-08-19T05:29:09;96401.28;;;19.04;87.26
39769;BME280;38939;47.824;14.642;2022-08-19T05:30:12;96398.38;;;19.06;87.12
39769;BME280;38939;47.824;14.642;2022-08-19T05:31:14;96406.84;;;19.08;86.92
39769;BME280;38939;47.824;14.642;2022-08-19T05:32:15;96403.94;;;19.09;87.03
39769;BME280;38939;47.824;14.642;2022-08-19T05:33:18;96410.00;;;19.10;87.60
39769;BME280;38939;47.824;14.642;2022-08-19T05:34:20;96416.09;;;19.10;87.80
39769;BME280;38939;47.824;14.642;2022-08-19T05:35:23;96416.91;;;19.11;87.86
39769;BME280;38939;47.824;14.642;2022-08-19T05:36:26;96421.63;;;19.14;87.72
39769;BME280;38939;47.824;14.642;2022-08-19T05:37:28;96417.94;;;19.15;87.63
39769;BME280;38939;47.824;14.642;2022-08-19T05:38:30;96415.00;;;19.16;87.34
39769;BME280;38939;47.824;14.642;2022-08-19T05:39:33;96410.53;;;19.17;87.48